createdAt,value
2018-01-30T00:01:42.661Z,92.60
2018-01-30T00:04:11.175Z,93.50
2018-01-30T00:06:38.811Z,93.20
2018-01-30T00:09:06.452Z,93.20
2018-01-30T00:11:34.310Z,93.10
2018-01-30T00:14:01.976Z,93.60
2018-01-30T00:16:30.625Z,94.20
2018-01-30T00:18:59.024Z,94.30
2018-01-30T00:21:27.468Z,94.10
2018-01-30T00:23:55.238Z,94.00
2018-01-30T00:26:23.790Z,93.80
2018-01-30T00:28:51.505Z,93.80
2018-01-30T00:31:19.994Z,94.20
2018-01-30T00:33:47.815Z,94.20
2018-01-30T00:36:15.541Z,94.40
2018-01-30T00:38:43.215Z,94.10
2018-01-30T00:41:11.143Z,94.30
2018-01-30T00:43:39.009Z,94.00
2018-01-30T00:46:07.544Z,93.90
2018-01-30T00:48:35.259Z,93.90
2018-01-30T00:51:03.030Z,93.90
2018-01-30T00:53:30.781Z,93.50
2018-01-30T00:55:58.516Z,93.60
2018-01-30T00:58:26.283Z,94.00
2018-01-30T01:00:54.900Z,93.40
2018-01-30T01:03:22.555Z,93.30
2018-01-30T01:05:50.190Z,93.60
2018-01-30T01:08:17.942Z,93.20
2018-01-30T01:10:45.729Z,93.50
2018-01-30T01:13:13.526Z,93.30
2018-01-30T01:15:41.507Z,93.40
2018-01-30T01:18:10.150Z,92.80
2018-01-30T01:20:37.883Z,92.70
2018-01-30T01:23:05.577Z,93.00
2018-01-30T01:25:33.281Z,92.50
2018-01-30T01:28:02.809Z,92.40
2018-01-30T01:30:31.311Z,92.80
2018-01-30T01:32:59.097Z,92.70
2018-01-30T01:35:26.758Z,92.40
2018-01-30T01:37:54.477Z,92.00
2018-01-30T01:40:22.167Z,92.20
2018-01-30T01:42:49.815Z,92.20
2018-01-30T01:45:17.548Z,92.20
2018-01-30T01:47:45.218Z,92.20
2018-01-30T01:50:13.015Z,92.30
2018-01-30T01:52:40.738Z,92.90
2018-01-30T01:55:08.493Z,93.20
2018-01-30T01:57:36.137Z,93.30
2018-01-30T02:00:03.812Z,93.50
2018-01-30T02:02:31.453Z,93.80
2018-01-30T02:04:59.084Z,93.50
2018-01-30T02:07:27.474Z,93.80
2018-01-30T02:09:55.117Z,93.80
2018-01-30T02:12:23.512Z,94.40
2018-01-30T02:14:52.023Z,94.40
2018-01-30T02:17:19.876Z,94.40
2018-01-30T02:19:47.663Z,94.10
2018-01-30T02:22:15.309Z,93.90
2018-01-30T02:24:43.017Z,94.10
2018-01-30T02:27:10.735Z,94.60
2018-01-30T02:29:38.456Z,94.30
2018-01-30T02:32:06.092Z,94.20
2018-01-30T02:34:33.811Z,94.60
2018-01-30T02:37:02.276Z,94.30
2018-01-30T02:39:30.726Z,94.30
2018-01-30T02:41:58.484Z,94.30
2018-01-30T02:44:26.144Z,94.30
2018-01-30T02:46:53.839Z,93.80
2018-01-30T02:49:21.482Z,93.90
2018-01-30T02:51:49.183Z,93.60
2018-01-30T02:54:16.902Z,93.50
2018-01-30T02:56:44.610Z,93.60
2018-01-30T02:59:13.041Z,93.20
2018-01-30T03:01:40.762Z,93.20
2018-01-30T03:04:09.397Z,93.40
2018-01-30T03:06:37.023Z,93.30
2018-01-30T03:09:04.709Z,92.80
2018-01-30T03:11:32.310Z,92.70
2018-01-30T03:14:00.065Z,92.70
2018-01-30T03:16:27.703Z,92.70
2018-01-30T03:18:55.374Z,92.80
2018-01-30T03:21:23.071Z,92.40
2018-01-30T03:23:51.513Z,92.60
2018-01-30T03:26:19.184Z,92.60
2018-01-30T03:28:46.933Z,92.50
2018-01-30T03:31:14.714Z,92.60
2018-01-30T03:33:42.350Z,92.50
2018-01-30T03:36:10.182Z,92.60
2018-01-30T03:38:38.704Z,92.50
2018-01-30T03:41:06.373Z,92.50
2018-01-30T03:43:34.056Z,92.90
2018-01-30T03:46:01.696Z,92.80
2018-01-30T03:48:29.433Z,92.70
2018-01-30T03:50:57.803Z,93.00
2018-01-30T03:53:25.437Z,93.00
2018-01-30T03:55:53.084Z,93.20
2018-01-30T03:58:20.725Z,93.40
2018-01-30T04:00:48.356Z,93.20
2018-01-30T04:03:16.837Z,93.20
2018-01-30T04:05:44.530Z,93.20
2018-01-30T04:08:13.012Z,93.60
2018-01-30T04:10:40.709Z,93.60
2018-01-30T04:13:08.432Z,93.60
2018-01-30T04:15:36.880Z,93.80
2018-01-30T04:18:04.614Z,93.80
2018-01-30T04:20:32.236Z,93.90
2018-01-30T04:23:00.654Z,94.00
2018-01-30T04:25:28.373Z,94.00
2018-01-30T04:27:56.946Z,94.10
2018-01-30T04:30:25.418Z,94.00
2018-01-30T04:32:53.059Z,94.00
2018-01-30T04:35:20.723Z,93.90
2018-01-30T04:37:48.593Z,93.80
2018-01-30T04:40:16.313Z,93.80
2018-01-30T04:42:44.006Z,93.80
2018-01-30T04:45:12.577Z,94.00
2018-01-30T04:47:40.256Z,93.90
2018-01-30T04:50:07.977Z,94.00
2018-01-30T04:52:36.515Z,94.00
2018-01-30T04:55:04.182Z,94.00
2018-01-30T04:57:31.869Z,93.80
2018-01-30T05:00:00.255Z,93.60
2018-01-30T05:02:28.684Z,93.70
2018-01-30T05:04:56.308Z,93.70
2018-01-30T05:07:24.709Z,93.90
2018-01-30T05:09:52.390Z,93.90
2018-01-30T05:12:20.083Z,94.10
2018-01-30T05:14:48.687Z,93.90
2018-01-30T05:17:17.254Z,93.70
2018-01-30T05:19:45.026Z,93.70
2018-01-30T05:22:12.643Z,94.00
2018-01-30T05:24:40.345Z,93.80
2018-01-30T05:27:08.017Z,93.70
2018-01-30T05:29:35.655Z,93.80
2018-01-30T05:32:03.316Z,94.50
2018-01-30T05:34:30.938Z,95.10
2018-01-30T05:36:58.550Z,95.40
2018-01-30T05:39:26.233Z,95.40
2018-01-30T05:41:53.827Z,95.80
2018-01-30T05:44:22.269Z,96.10
2018-01-30T05:46:49.858Z,96.10
2018-01-30T05:49:18.269Z,96.00
2018-01-30T05:51:45.870Z,96.00
2018-01-30T05:54:13.502Z,95.90
2018-01-30T05:56:41.104Z,95.00
2018-01-30T05:59:08.697Z,95.60
2018-01-30T06:01:36.421Z,96.00
2018-01-30T06:04:04.009Z,96.00
2018-01-30T06:06:32.436Z,97.90
2018-01-30T06:09:00.056Z,97.90
2018-01-30T06:11:28.420Z,98.20
2018-01-30T06:13:56.156Z,98.20
2018-01-30T06:16:23.791Z,98.60
2018-01-30T06:18:52.175Z,99.10
2018-01-30T06:21:19.764Z,99.10
2018-01-30T06:23:47.378Z,98.80
2018-01-30T06:26:14.981Z,99.20
2018-01-30T06:28:42.642Z,99.20
2018-01-30T06:31:10.261Z,99.10
2018-01-30T06:33:38.606Z,98.60
2018-01-30T06:36:06.227Z,98.60
2018-01-30T06:38:33.887Z,98.80
2018-01-30T06:41:01.494Z,98.70
2018-01-30T06:43:29.097Z,99.20
2018-01-30T06:45:56.718Z,99.30
2018-01-30T06:48:24.312Z,99.20
2018-01-30T06:50:52.746Z,99.30
2018-01-30T06:53:20.356Z,99.30
2018-01-30T06:55:48.250Z,98.70
2018-01-30T06:58:15.858Z,98.40
2018-01-30T07:00:43.544Z,98.60
2018-01-30T07:03:11.894Z,97.80
2018-01-30T07:05:39.530Z,97.70
2018-01-30T07:08:07.118Z,98.00
2018-01-30T07:10:34.697Z,97.70
2018-01-30T07:13:03.078Z,97.50
2018-01-30T07:15:31.472Z,96.70
2018-01-30T07:17:59.893Z,97.60
2018-01-30T07:20:31.438Z,97.60
2018-01-30T07:22:59.063Z,97.30
2018-01-30T07:25:27.461Z,96.40
2018-01-30T07:27:55.102Z,96.40
2018-01-30T07:30:23.741Z,97.20
2018-01-30T07:32:51.386Z,97.20
2018-01-30T07:35:18.973Z,96.90
2018-01-30T07:37:46.612Z,96.00
2018-01-30T07:40:14.201Z,96.90
2018-01-30T07:42:41.810Z,97.10
2018-01-30T07:45:10.191Z,97.10
2018-01-30T07:47:38.545Z,96.30
2018-01-30T07:50:06.170Z,96.30
2018-01-30T07:52:33.778Z,96.70
2018-01-30T07:55:01.426Z,96.50
2018-01-30T07:57:29.049Z,96.00
2018-01-30T07:59:56.684Z,96.20
2018-01-30T08:02:24.277Z,96.70
2018-01-30T08:04:51.913Z,96.50
2018-01-30T08:07:19.565Z,96.80
2018-01-30T08:09:47.945Z,97.10
2018-01-30T08:12:16.427Z,97.10
2018-01-30T08:14:44.829Z,96.00
2018-01-30T08:17:12.437Z,96.00
2018-01-30T08:19:40.051Z,95.90
2018-01-30T08:22:07.709Z,96.30
2018-01-30T08:24:35.316Z,96.70
2018-01-30T08:27:03.014Z,96.40
2018-01-30T08:29:31.375Z,95.70
2018-01-30T08:31:59.013Z,95.70
2018-01-30T08:34:27.366Z,95.60
2018-01-30T08:36:55.013Z,95.60
2018-01-30T08:39:22.606Z,95.00
2018-01-30T08:41:50.206Z,96.10
2018-01-30T08:44:18.599Z,96.10
2018-01-30T08:46:46.992Z,95.90
2018-01-30T08:49:14.646Z,95.90
2018-01-30T08:51:43.008Z,95.60
2018-01-30T08:54:10.626Z,95.60
2018-01-30T08:56:38.225Z,95.30
2018-01-30T08:59:05.855Z,95.60
2018-01-30T09:01:33.489Z,96.30
2018-01-30T09:04:01.130Z,96.50
2018-01-30T09:06:29.530Z,95.30
2018-01-30T09:08:57.125Z,95.30
2018-01-30T09:11:24.768Z,96.10
2018-01-30T09:13:52.382Z,95.40
2018-01-30T09:16:22.657Z,95.60
2018-01-30T09:18:50.303Z,95.60
2018-01-30T09:21:17.904Z,95.60
2018-01-30T09:23:45.572Z,96.10
2018-01-30T09:26:13.232Z,95.40
2018-01-30T09:28:40.869Z,95.30
2018-01-30T09:31:08.528Z,95.90
2018-01-30T09:33:36.178Z,95.80
2018-01-30T09:36:03.770Z,96.10
2018-01-30T09:38:31.401Z,95.40
2018-01-30T09:40:58.991Z,95.50
2018-01-30T09:43:26.635Z,95.40
2018-01-30T09:45:54.248Z,95.20
2018-01-30T09:48:21.904Z,95.30
2018-01-30T09:50:49.526Z,95.00
2018-01-30T09:53:17.167Z,95.90
2018-01-30T09:55:45.555Z,94.80
2018-01-30T09:58:13.185Z,94.80
2018-01-30T10:00:40.884Z,95.50
2018-01-30T10:03:08.486Z,94.50
2018-01-30T10:05:36.141Z,94.60
2018-01-30T10:08:03.765Z,94.70
2018-01-30T10:10:32.174Z,95.40
2018-01-30T10:12:59.786Z,95.30
2018-01-30T10:15:28.156Z,95.50
2018-01-30T10:17:55.777Z,95.10
2018-01-30T10:20:23.427Z,95.90
2018-01-30T10:22:51.032Z,95.80
2018-01-30T10:25:18.634Z,95.30
2018-01-30T10:27:47.016Z,95.80
2018-01-30T10:30:15.375Z,94.20
2018-01-30T10:32:43.781Z,95.10
2018-01-30T10:35:11.421Z,95.10
2018-01-30T10:37:39.819Z,95.40
2018-01-30T10:40:07.421Z,95.40
2018-01-30T10:42:35.084Z,95.30
2018-01-30T10:45:02.767Z,95.60
2018-01-30T10:47:30.362Z,95.80
2018-01-30T10:49:58.733Z,96.40
2018-01-30T10:52:27.122Z,96.20
2018-01-30T10:54:55.517Z,96.40
2018-01-30T10:57:23.114Z,96.40
2018-01-30T10:59:50.797Z,96.20
2018-01-30T11:02:18.421Z,95.50
2018-01-30T11:04:46.079Z,95.90
2018-01-30T11:07:13.689Z,94.20
2018-01-30T11:09:41.292Z,94.30
2018-01-30T11:12:08.922Z,93.80
2018-01-30T11:14:37.334Z,93.80
2018-01-30T11:17:04.951Z,93.80
2018-01-30T11:19:32.538Z,93.30
2018-01-30T11:22:00.917Z,93.70
2018-01-30T11:24:29.292Z,93.70
2018-01-30T11:26:57.851Z,93.30
2018-01-30T11:29:25.484Z,93.30
2018-01-30T11:31:53.183Z,93.70
2018-01-30T11:34:20.822Z,93.10
2018-01-30T11:36:48.539Z,93.40
2018-01-30T11:39:16.945Z,94.30
2018-01-30T11:41:44.622Z,94.30
2018-01-30T11:44:12.374Z,93.90
2018-01-30T11:46:40.054Z,94.10
2018-01-30T11:49:07.669Z,94.40
2018-01-30T11:51:36.099Z,92.10
2018-01-30T11:54:03.700Z,92.10
2018-01-30T11:56:32.100Z,92.30
2018-01-30T11:59:00.560Z,91.80
2018-01-30T12:01:29.031Z,91.50
2018-01-30T12:03:56.680Z,91.80
2018-01-30T12:06:24.333Z,92.00
2018-01-30T12:08:52.038Z,92.40
2018-01-30T12:11:21.905Z,91.80
2018-01-30T12:13:49.549Z,91.80
2018-01-30T12:16:17.190Z,91.10
2018-01-30T12:18:45.672Z,92.00
2018-01-30T12:21:14.183Z,90.70
2018-01-30T12:23:41.892Z,90.70
2018-01-30T12:26:09.586Z,90.50
2018-01-30T12:28:37.968Z,90.50
2018-01-30T12:31:05.575Z,90.50
2018-01-30T12:33:34.154Z,90.30
2018-01-30T12:36:01.788Z,90.80
2018-01-30T12:38:29.481Z,90.20
2018-01-30T12:40:57.174Z,90.70
2018-01-30T12:43:24.828Z,90.30
2018-01-30T12:45:52.422Z,90.50
2018-01-30T12:48:20.871Z,90.40
2018-01-30T12:50:48.543Z,90.40
2018-01-30T12:53:16.177Z,90.10
2018-01-30T12:55:43.823Z,89.80
2018-01-30T12:58:11.514Z,90.50
2018-01-30T13:00:39.125Z,90.90
2018-01-30T13:03:07.563Z,90.10
2018-01-30T13:05:35.189Z,90.10
2018-01-30T13:08:02.837Z,90.10
2018-01-30T13:10:30.464Z,90.40
2018-01-30T13:12:58.092Z,88.70
2018-01-30T13:15:25.708Z,87.20
2018-01-30T13:17:54.085Z,89.50
2018-01-30T13:20:22.491Z,88.50
2018-01-30T13:22:50.156Z,88.50
2018-01-30T13:25:17.773Z,86.80
2018-01-30T13:27:45.396Z,84.50
2018-01-30T13:30:13.011Z,84.40
2018-01-30T13:32:41.401Z,86.00
2018-01-30T13:35:09.798Z,86.50
2018-01-30T13:37:37.523Z,86.40
2018-01-30T13:40:05.184Z,85.00
2018-01-30T13:42:32.782Z,85.30
2018-01-30T13:45:00.425Z,85.20
2018-01-30T13:47:28.789Z,89.40
2018-01-30T13:49:56.429Z,89.40
2018-01-30T13:52:24.041Z,88.00
2018-01-30T13:54:52.419Z,85.70
2018-01-30T13:57:20.807Z,85.10
2018-01-30T13:59:49.232Z,88.20
2018-01-30T14:02:16.928Z,88.20
2018-01-30T14:04:44.520Z,85.80
2018-01-30T14:07:12.161Z,85.90
2018-01-30T14:09:40.522Z,86.10
2018-01-30T14:12:08.160Z,86.00
2018-01-30T14:14:35.789Z,86.30
2018-01-30T14:17:04.215Z,88.70
2018-01-30T14:19:31.838Z,88.70
2018-01-30T14:21:59.460Z,88.70
2018-01-30T14:24:27.834Z,89.50
2018-01-30T14:26:55.426Z,89.30
2018-01-30T14:29:23.046Z,89.60
2018-01-30T14:31:50.677Z,89.90
2018-01-30T14:34:18.350Z,89.40
2018-01-30T14:36:45.970Z,90.00
2018-01-30T14:39:14.447Z,90.00
2018-01-30T14:41:42.057Z,90.00
2018-01-30T14:44:09.682Z,89.40
2018-01-30T14:46:37.401Z,90.10
2018-01-30T14:49:05.093Z,88.60
2018-01-30T14:51:33.477Z,88.80
2018-01-30T14:54:01.874Z,88.30
2018-01-30T14:56:29.528Z,88.30
2018-01-30T14:58:57.162Z,89.20
2018-01-30T15:01:24.854Z,89.10
2018-01-30T15:03:52.462Z,89.20
2018-01-30T15:06:20.051Z,88.90
2018-01-30T15:08:47.701Z,89.10
2018-01-30T15:11:15.299Z,88.10
2018-01-30T15:13:42.910Z,88.20
2018-01-30T15:16:10.546Z,89.10
2018-01-30T15:18:38.178Z,90.00
2018-01-30T15:21:06.562Z,88.90
2018-01-30T15:23:35.021Z,88.50
2018-01-30T15:26:02.649Z,88.50
2018-01-30T15:28:30.254Z,89.10
2018-01-30T15:30:58.686Z,88.60
2018-01-30T15:33:26.289Z,88.60
2018-01-30T15:35:53.925Z,87.80
2018-01-30T15:38:21.648Z,88.60
2018-01-30T15:40:49.271Z,88.50
2018-01-30T15:43:16.887Z,88.90
2018-01-30T15:45:44.494Z,88.80
2018-01-30T15:48:12.131Z,90.10
2018-01-30T15:50:40.502Z,90.30
2018-01-30T15:53:08.202Z,90.50
2018-01-30T15:55:35.798Z,88.80
2018-01-30T15:58:04.210Z,89.80
2018-01-30T16:00:32.575Z,89.40
2018-01-30T16:03:00.209Z,89.40
2018-01-30T16:05:28.594Z,89.40
2018-01-30T16:07:56.956Z,90.20
2018-01-30T16:10:24.570Z,90.20
2018-01-30T16:12:52.283Z,89.90
2018-01-30T16:15:20.009Z,90.30
2018-01-30T16:17:47.619Z,90.40
2018-01-30T16:20:15.998Z,90.50
2018-01-30T16:22:44.364Z,90.70
2018-01-30T16:25:12.005Z,90.70
2018-01-30T16:27:39.605Z,91.20
2018-01-30T16:30:07.948Z,91.30
2018-01-30T16:32:35.599Z,91.20
2018-01-30T16:35:03.197Z,90.80
2018-01-30T16:37:30.812Z,90.70
2018-01-30T16:39:58.461Z,91.40
2018-01-30T16:42:26.084Z,91.10
2018-01-30T16:44:53.717Z,90.80
2018-01-30T16:47:21.377Z,90.60
2018-01-30T16:49:48.981Z,90.90
2018-01-30T16:52:17.426Z,91.80
2018-01-30T16:54:45.314Z,91.80
2018-01-30T16:57:12.930Z,92.20
2018-01-30T16:59:40.542Z,92.40
2018-01-30T17:02:08.175Z,92.30
2018-01-30T17:04:35.788Z,92.10
2018-01-30T17:07:04.172Z,92.40
2018-01-30T17:09:31.822Z,92.40
2018-01-30T17:12:00.238Z,92.60
2018-01-30T17:14:27.899Z,92.60
2018-01-30T17:16:55.536Z,92.90
2018-01-30T17:19:23.914Z,93.30
2018-01-30T17:21:52.298Z,93.60
2018-01-30T17:24:20.714Z,93.50
2018-01-30T17:26:48.332Z,93.50
2018-01-30T17:29:16.689Z,93.70
2018-01-30T17:31:44.387Z,93.70
2018-01-30T17:34:12.804Z,93.80
2018-01-30T17:36:40.433Z,93.80
2018-01-30T17:39:08.881Z,94.00
2018-01-30T17:41:36.538Z,94.00
2018-01-30T17:44:04.143Z,93.90
2018-01-30T17:46:31.753Z,93.60
2018-01-30T17:48:59.398Z,93.80
2018-01-30T17:51:27.013Z,93.80
2018-01-30T17:53:55.431Z,93.90
2018-01-30T17:56:23.014Z,93.90
2018-01-30T17:58:50.626Z,93.90
2018-01-30T18:01:19.034Z,94.00
2018-01-30T18:03:46.646Z,94.00
2018-01-30T18:06:15.050Z,94.70
2018-01-30T18:08:42.825Z,94.40
2018-01-30T18:11:10.427Z,94.40
2018-01-30T18:13:38.034Z,94.40
2018-01-30T18:16:06.449Z,94.60
2018-01-30T18:18:34.250Z,94.60
2018-01-30T18:21:01.898Z,94.40
2018-01-30T18:23:29.840Z,94.30
2018-01-30T18:25:57.522Z,94.50
2018-01-30T18:28:25.861Z,94.60
2018-01-30T18:30:53.546Z,94.30
2018-01-30T18:33:21.919Z,94.30
2018-01-30T18:35:49.585Z,94.30
2018-01-30T18:38:18.002Z,94.50
2018-01-30T18:40:45.918Z,94.50
2018-01-30T18:43:13.630Z,94.70
2018-01-30T18:45:41.324Z,94.70
2018-01-30T18:48:09.738Z,94.70
2018-01-30T18:50:37.602Z,94.70
2018-01-30T18:53:05.299Z,94.50
2018-01-30T18:55:33.028Z,94.60
2018-01-30T18:58:01.699Z,94.60
2018-01-30T19:00:30.097Z,94.80
2018-01-30T19:02:57.830Z,94.80
2018-01-30T19:05:25.511Z,94.80
2018-01-30T19:07:53.929Z,94.80
2018-01-30T19:10:21.801Z,94.70
2018-01-30T19:12:49.606Z,95.00
2018-01-30T19:15:17.438Z,94.90
2018-01-30T19:17:45.238Z,94.70
2018-01-30T19:20:12.906Z,94.40
2018-01-30T19:22:40.621Z,94.70
2018-01-30T19:25:08.325Z,94.70
2018-01-30T19:27:35.969Z,94.70
2018-01-30T19:30:03.831Z,95.10
2018-01-30T19:32:31.573Z,95.00
2018-01-30T19:34:59.283Z,95.00
2018-01-30T19:37:27.130Z,94.90
2018-01-30T19:39:54.788Z,94.70
2018-01-30T19:42:22.556Z,94.50
2018-01-30T19:44:50.221Z,94.80
2018-01-30T19:47:17.913Z,94.70
2018-01-30T19:49:45.582Z,94.60
2018-01-30T19:52:13.355Z,94.90
2018-01-30T19:54:41.050Z,94.60
2018-01-30T19:57:08.818Z,94.50
2018-01-30T19:59:37.337Z,94.70
2018-01-30T20:02:05.054Z,94.70
2018-01-30T20:04:32.984Z,94.80
2018-01-30T20:07:00.718Z,94.70
2018-01-30T20:09:28.426Z,94.80
2018-01-30T20:11:56.081Z,94.90
2018-01-30T20:14:23.807Z,95.00
2018-01-30T20:16:52.309Z,94.90
2018-01-30T20:19:20.013Z,94.90
2018-01-30T20:21:47.681Z,94.50
2018-01-30T20:24:16.130Z,95.10
2018-01-30T20:26:45.538Z,95.00
2018-01-30T20:29:14.057Z,94.80
2018-01-30T20:31:42.531Z,94.90
2018-01-30T20:34:10.956Z,94.90
2018-01-30T20:36:38.602Z,94.90
2018-01-30T20:39:06.313Z,94.70
2018-01-30T20:41:34.070Z,95.00
2018-01-30T20:44:01.708Z,95.00
2018-01-30T20:46:29.377Z,94.80
2018-01-30T20:48:57.055Z,94.70
2018-01-30T20:51:24.767Z,94.80
2018-01-30T20:53:53.287Z,95.00
2018-01-30T20:56:21.788Z,94.80
2018-01-30T20:58:50.350Z,94.60
2018-01-30T21:01:18.156Z,94.60
2018-01-30T21:03:45.901Z,94.80
2018-01-30T21:06:13.581Z,95.20
2018-01-30T21:08:41.273Z,95.20
2018-01-30T21:11:09.070Z,95.40
2018-01-30T21:13:36.705Z,95.20
2018-01-30T21:16:05.094Z,95.50
2018-01-30T21:18:32.804Z,95.40
2018-01-30T21:21:00.488Z,95.30
2018-01-30T21:23:28.938Z,95.30
2018-01-30T21:25:56.647Z,95.30
2018-01-30T21:28:25.037Z,95.30
2018-01-30T21:30:53.470Z,95.20
2018-01-30T21:33:21.092Z,95.20
2018-01-30T21:35:48.847Z,95.40
2018-01-30T21:38:16.598Z,95.30
2018-01-30T21:40:45.089Z,95.20
2018-01-30T21:43:12.799Z,95.20
2018-01-30T21:45:40.510Z,95.30
2018-01-30T21:48:08.175Z,95.20
2018-01-30T21:50:36.705Z,95.30
2018-01-30T21:53:04.344Z,95.30
2018-01-30T21:55:32.001Z,95.40
2018-01-30T22:00:40.440Z,95.30
2018-01-30T22:03:08.811Z,95.60
2018-01-30T22:05:37.321Z,95.60
2018-01-30T22:08:04.957Z,95.40
2018-01-30T22:10:32.548Z,94.80
2018-01-30T22:13:00.149Z,94.80
2018-01-30T22:15:28.516Z,95.10
2018-01-30T22:17:56.149Z,95.10
2018-01-30T22:20:23.740Z,95.00
2018-01-30T22:22:51.463Z,94.90
2018-01-30T22:25:19.853Z,94.80
2018-01-30T22:27:47.454Z,94.80
2018-01-30T22:30:15.060Z,94.70
2018-01-30T22:32:43.447Z,94.60
2018-01-30T22:35:11.093Z,94.60
2018-01-30T22:37:39.476Z,94.90
2018-01-30T22:40:07.844Z,94.90
2018-01-30T22:42:35.490Z,94.80
2018-01-30T22:45:03.063Z,94.90
